createdAt,value
2022-12-04T00:01:23.918Z,5.51
2022-12-04T00:04:26.795Z,5.13
2022-12-04T00:07:29.761Z,5.55
2022-12-04T00:10:32.662Z,5.70
2022-12-04T00:13:36.425Z,5.62
2022-12-04T00:16:39.351Z,5.58
2022-12-04T00:19:44.883Z,5.59
2022-12-04T00:22:47.739Z,5.44
2022-12-04T00:25:50.521Z,5.54
2022-12-04T00:28:53.742Z,5.54
2022-12-04T00:31:56.538Z,5.40
2022-12-04T00:34:59.399Z,5.31
2022-12-04T00:38:02.221Z,5.11
2022-12-04T00:41:05.300Z,5.04
2022-12-04T00:44:08.216Z,5.64
2022-12-04T00:47:10.999Z,6.00
2022-12-04T00:50:13.796Z,6.02
2022-12-04T00:53:16.940Z,5.96
2022-12-04T00:56:24.121Z,6.08
2022-12-04T00:59:26.975Z,6.12
2022-12-04T01:02:30.853Z,5.85
2022-12-04T01:05:42.047Z,5.69
2022-12-04T01:08:44.791Z,5.89
2022-12-04T01:11:47.622Z,6.07
2022-12-04T01:14:50.361Z,6.18
2022-12-04T01:17:53.143Z,6.27
2022-12-04T01:20:56.002Z,6.20
2022-12-04T01:23:59.871Z,6.26
2022-12-04T01:27:03.109Z,6.45
2022-12-04T01:30:06.519Z,6.55
2022-12-04T01:33:09.341Z,6.63
2022-12-04T01:36:19.080Z,6.74
2022-12-04T01:39:21.970Z,6.63
2022-12-04T01:42:25.402Z,5.47
2022-12-04T01:45:31.160Z,4.72
2022-12-04T01:48:39.168Z,5.43
2022-12-04T01:51:46.642Z,5.69
2022-12-04T01:54:54.189Z,5.70
2022-12-04T01:57:58.119Z,5.73
2022-12-04T02:01:08.506Z,5.60
2022-12-04T02:04:12.264Z,5.56
2022-12-04T02:07:15.102Z,5.54
2022-12-04T02:10:24.679Z,5.44
2022-12-04T02:13:35.666Z,5.40
2022-12-04T02:17:02.385Z,5.34
2022-12-04T02:20:54.903Z,5.13
2022-12-04T02:24:00.603Z,5.05
2022-12-04T02:27:09.145Z,4.99
2022-12-04T02:30:13.637Z,5.14
2022-12-04T02:33:23.919Z,5.22
2022-12-04T02:36:31.379Z,5.23
2022-12-04T02:39:44.677Z,5.22
2022-12-04T02:42:58.929Z,5.12
2022-12-04T02:46:18.132Z,5.15
2022-12-04T02:49:31.234Z,5.25
2022-12-04T02:52:38.902Z,5.44
2022-12-04T02:55:51.088Z,5.35
2022-12-04T02:59:02.482Z,5.17
2022-12-04T03:02:48.203Z,5.16
2022-12-04T03:05:51.018Z,4.78
2022-12-04T03:09:01.857Z,4.86
2022-12-04T03:12:11.559Z,4.93
2022-12-04T03:15:35.834Z,4.77
2022-12-04T03:19:07.411Z,4.59
2022-12-04T03:22:15.130Z,4.77
2022-12-04T03:25:18.043Z,4.89
2022-12-04T03:28:29.214Z,4.88
2022-12-04T03:31:50.455Z,5.05
2022-12-04T03:35:06.182Z,5.22
2022-12-04T03:38:21.332Z,5.51
2022-12-04T03:41:49.933Z,5.47
2022-12-04T03:45:19.794Z,5.38
2022-12-04T03:48:26.800Z,5.38
2022-12-04T03:51:41.706Z,5.40
2022-12-04T03:54:51.775Z,5.25
2022-12-04T03:58:00.114Z,5.28
2022-12-04T04:01:07.842Z,5.23
2022-12-04T04:04:16.186Z,5.16
2022-12-04T04:07:31.863Z,4.96
2022-12-04T04:10:38.250Z,4.74
2022-12-04T04:14:12.218Z,4.68
2022-12-04T04:17:38.857Z,4.75
2022-12-04T04:21:08.952Z,4.72
2022-12-04T04:24:26.072Z,4.65
2022-12-04T04:27:28.936Z,5.15
2022-12-04T04:30:34.355Z,5.66
2022-12-04T04:33:51.355Z,5.34
2022-12-04T04:37:13.253Z,5.01
2022-12-04T04:40:30.819Z,4.86
2022-12-04T04:43:54.402Z,4.67
2022-12-04T04:47:02.933Z,4.91
2022-12-04T04:50:09.358Z,4.95
2022-12-04T04:53:37.005Z,5.09
2022-12-04T04:56:44.433Z,5.13
2022-12-04T04:59:47.263Z,5.50
2022-12-04T05:02:50.562Z,5.68
2022-12-04T05:05:53.888Z,5.96
2022-12-04T05:08:56.768Z,6.13
2022-12-04T05:11:59.612Z,6.33
2022-12-04T05:15:02.632Z,6.69
2022-12-04T05:18:05.620Z,6.69
2022-12-04T05:21:16.422Z,6.59
2022-12-04T05:24:19.245Z,6.60
2022-12-04T05:27:22.776Z,6.64
2022-12-04T05:30:25.786Z,6.59
2022-12-04T05:33:29.766Z,6.54
2022-12-04T05:36:32.591Z,6.58
2022-12-04T05:39:35.829Z,6.90
2022-12-04T05:42:38.666Z,7.37
2022-12-04T05:45:41.569Z,6.85
2022-12-04T05:48:44.444Z,5.43
2022-12-04T05:51:47.283Z,4.93
2022-12-04T05:54:50.073Z,5.41
2022-12-04T05:57:52.833Z,5.43
2022-12-04T06:00:55.636Z,5.42
2022-12-04T06:03:58.560Z,5.33
2022-12-04T06:07:01.343Z,5.27
2022-12-04T06:10:05.191Z,5.36
2022-12-04T06:13:08.476Z,5.58
2022-12-04T06:16:20.464Z,5.55
2022-12-04T06:19:23.757Z,5.39
2022-12-04T06:22:26.565Z,5.18
2022-12-04T06:25:29.606Z,4.98
2022-12-04T06:28:32.348Z,4.77
2022-12-04T06:31:36.413Z,4.67
2022-12-04T06:34:39.397Z,4.61
2022-12-04T06:37:42.252Z,4.46
2022-12-04T06:40:45.021Z,4.44
2022-12-04T06:43:48.963Z,4.67
2022-12-04T06:46:54.693Z,4.71
2022-12-04T06:49:58.232Z,5.09
2022-12-04T06:53:07.958Z,5.52
2022-12-04T06:56:17.906Z,5.50
2022-12-04T06:59:20.708Z,5.75
2022-12-04T07:02:23.611Z,6.01
2022-12-04T07:05:27.685Z,6.05
2022-12-04T07:08:30.466Z,5.76
2022-12-04T07:11:34.232Z,5.23
2022-12-04T07:14:37.120Z,5.10
2022-12-04T07:17:39.954Z,5.04
2022-12-04T07:20:42.737Z,5.03
2022-12-04T07:23:46.091Z,5.28
2022-12-04T07:26:49.000Z,5.35
2022-12-04T07:29:53.234Z,5.26
2022-12-04T07:32:56.124Z,5.22
2022-12-04T07:36:00.842Z,5.55
2022-12-04T07:39:03.980Z,5.75
2022-12-04T07:42:06.724Z,5.69
2022-12-04T07:45:10.039Z,5.69
2022-12-04T07:48:12.852Z,5.65
2022-12-04T07:51:20.817Z,5.66
2022-12-04T07:54:23.621Z,5.53
2022-12-04T07:57:28.214Z,5.69
2022-12-04T08:00:31.023Z,6.26
2022-12-04T08:03:33.887Z,6.66
2022-12-04T08:06:37.625Z,7.04
2022-12-04T08:09:40.477Z,7.03
2022-12-04T08:12:43.291Z,6.71
2022-12-04T08:15:46.062Z,6.44
2022-12-04T08:18:48.961Z,6.52
2022-12-04T08:21:54.873Z,6.47
2022-12-04T08:24:57.652Z,6.48
2022-12-04T08:28:00.510Z,6.46
2022-12-04T08:31:11.857Z,6.55
2022-12-04T08:34:15.406Z,6.58
2022-12-04T08:37:18.408Z,6.94
2022-12-04T08:40:21.207Z,6.88
2022-12-04T08:43:24.017Z,6.51
2022-12-04T08:46:28.295Z,6.38
2022-12-04T08:49:31.222Z,6.43
2022-12-04T08:52:34.022Z,6.54
2022-12-04T08:55:36.772Z,6.49
2022-12-04T08:58:39.640Z,6.65
2022-12-04T09:01:42.492Z,6.57
2022-12-04T09:04:45.417Z,6.30
2022-12-04T09:07:48.328Z,7.21
2022-12-04T09:10:51.147Z,7.63
2022-12-04T09:13:54.460Z,7.75
2022-12-04T09:16:57.303Z,8.44
2022-12-04T09:20:01.418Z,8.70
2022-12-04T09:23:05.719Z,8.88
2022-12-04T09:26:26.842Z,8.71
2022-12-04T09:29:31.742Z,7.53
2022-12-04T09:32:35.279Z,6.98
2022-12-04T09:35:41.154Z,7.39
2022-12-04T09:38:46.487Z,7.17
2022-12-04T09:42:03.061Z,7.28
2022-12-04T09:45:17.831Z,6.98
2022-12-04T09:48:27.296Z,6.70
2022-12-04T09:51:32.271Z,6.86
2022-12-04T09:54:41.218Z,7.06
2022-12-04T09:57:47.647Z,7.13
2022-12-04T10:00:51.391Z,7.24
2022-12-04T10:03:59.915Z,7.42
2022-12-04T10:07:25.314Z,7.46
2022-12-04T10:10:45.688Z,7.52
2022-12-04T10:13:48.500Z,7.57
2022-12-04T10:17:10.096Z,7.60
2022-12-04T10:20:28.344Z,7.65
2022-12-04T10:23:46.587Z,7.93
2022-12-04T10:26:49.627Z,7.91
2022-12-04T10:29:58.426Z,7.49
2022-12-04T10:33:19.566Z,7.46
2022-12-04T10:36:28.426Z,7.41
2022-12-04T10:39:50.907Z,7.17
2022-12-04T10:43:14.485Z,7.04
2022-12-04T10:46:33.692Z,7.21
2022-12-04T10:49:37.746Z,7.12
2022-12-04T10:52:40.520Z,6.96
2022-12-04T10:55:43.494Z,7.21
2022-12-04T10:59:01.103Z,7.31
2022-12-04T11:02:24.118Z,7.18
2022-12-04T11:05:32.112Z,7.61
2022-12-04T11:08:50.186Z,8.37
2022-12-04T11:11:53.137Z,8.09
2022-12-04T11:15:08.341Z,7.66
2022-12-04T11:18:25.250Z,7.06
2022-12-04T11:21:30.832Z,6.75
2022-12-04T11:24:36.922Z,6.73
2022-12-04T11:27:39.765Z,6.43
2022-12-04T11:30:49.290Z,6.17
2022-12-04T11:34:00.280Z,6.19
2022-12-04T11:37:04.422Z,6.59
2022-12-04T11:40:16.992Z,6.61
2022-12-04T11:43:20.850Z,6.58
2022-12-04T11:46:27.393Z,6.95
2022-12-04T11:49:32.740Z,7.06
2022-12-04T11:52:53.328Z,7.10
2022-12-04T11:56:16.244Z,7.34
2022-12-04T11:59:43.056Z,7.29
2022-12-04T12:03:06.612Z,7.23
2022-12-04T12:06:32.832Z,7.25
2022-12-04T12:09:46.262Z,7.25
2022-12-04T12:12:58.366Z,7.21
2022-12-04T12:16:13.437Z,7.20
2022-12-04T12:19:22.598Z,7.29
2022-12-04T12:22:40.939Z,7.43
2022-12-04T12:26:00.514Z,7.56
2022-12-04T12:29:17.644Z,7.73
2022-12-04T12:32:29.569Z,7.81
2022-12-04T12:35:45.881Z,7.68
2022-12-04T12:39:16.490Z,7.39
2022-12-04T12:42:26.520Z,7.02
2022-12-04T12:45:48.015Z,7.30
2022-12-04T12:49:00.802Z,7.90
2022-12-04T12:52:14.812Z,8.34
2022-12-04T12:55:29.873Z,8.64
2022-12-04T12:58:36.544Z,9.37
2022-12-04T13:01:57.277Z,8.39
2022-12-04T13:05:11.026Z,6.70
2022-12-04T13:08:36.659Z,6.70
2022-12-04T13:11:40.600Z,6.68
2022-12-04T13:14:48.664Z,6.46
2022-12-04T13:17:55.387Z,6.04
2022-12-04T13:21:03.711Z,5.94
2022-12-04T13:24:31.672Z,5.79
2022-12-04T13:27:53.646Z,5.67
2022-12-04T13:31:27.891Z,6.11
2022-12-04T13:35:03.865Z,5.71
2022-12-04T13:38:28.729Z,5.28
2022-12-04T13:41:38.933Z,6.36
2022-12-04T13:44:41.860Z,7.71
2022-12-04T13:47:44.643Z,7.88
2022-12-04T13:50:47.564Z,8.13
2022-12-04T13:54:21.471Z,8.85
2022-12-04T13:57:25.713Z,8.76
2022-12-04T14:00:34.952Z,6.90
2022-12-04T14:03:48.604Z,5.97
2022-12-04T14:06:52.650Z,5.70
2022-12-04T14:09:58.016Z,5.84
2022-12-04T14:13:07.138Z,6.19
2022-12-04T14:16:22.201Z,6.36
2022-12-04T14:19:36.642Z,6.19
2022-12-04T14:22:43.864Z,6.41
2022-12-04T14:25:46.783Z,7.61
2022-12-04T14:28:50.586Z,8.02
2022-12-04T14:31:55.942Z,7.79
2022-12-04T14:34:59.398Z,7.58
2022-12-04T14:38:06.429Z,7.15
2022-12-04T14:41:09.768Z,6.83
2022-12-04T14:44:29.761Z,6.45
2022-12-04T14:48:10.482Z,6.53
2022-12-04T14:51:33.327Z,7.33
2022-12-04T14:54:44.913Z,7.95
2022-12-04T14:57:59.821Z,8.58
2022-12-04T15:01:05.961Z,7.32
2022-12-04T15:04:35.439Z,5.51
2022-12-04T15:07:48.100Z,4.73
2022-12-04T15:11:09.693Z,4.33
2022-12-04T15:14:14.022Z,4.25
2022-12-04T15:17:18.826Z,4.40
2022-12-04T15:20:21.864Z,5.08
2022-12-04T15:23:34.000Z,4.84
2022-12-04T15:26:38.013Z,5.01
2022-12-04T15:29:48.386Z,5.23
2022-12-04T15:32:53.608Z,5.34
2022-12-04T15:36:05.593Z,5.16
2022-12-04T15:39:14.123Z,4.83
2022-12-04T15:42:25.961Z,4.99
2022-12-04T15:45:32.256Z,5.33
2022-12-04T15:48:35.062Z,5.41
2022-12-04T15:51:37.972Z,5.36
2022-12-04T15:54:56.699Z,5.37
2022-12-04T15:58:24.725Z,6.02
2022-12-04T16:01:28.149Z,6.72
2022-12-04T16:04:35.616Z,7.14
2022-12-04T16:07:57.832Z,7.98
2022-12-04T16:11:08.004Z,8.14
2022-12-04T16:14:18.810Z,6.44
2022-12-04T16:17:31.768Z,5.33
2022-12-04T16:20:36.509Z,5.59
2022-12-04T16:23:39.293Z,6.39
2022-12-04T16:26:42.221Z,6.71
2022-12-04T16:29:45.537Z,6.67
2022-12-04T16:32:48.575Z,7.33
2022-12-04T16:35:51.373Z,7.56
2022-12-04T16:38:54.260Z,7.33
2022-12-04T16:41:57.236Z,7.19
2022-12-04T16:45:00.162Z,7.15
2022-12-04T16:48:03.254Z,7.08
2022-12-04T16:51:06.074Z,7.13
2022-12-04T16:54:10.479Z,7.13
2022-12-04T16:57:13.323Z,7.38
2022-12-04T17:00:17.760Z,7.49
2022-12-04T17:03:29.646Z,7.43
2022-12-04T17:06:33.262Z,7.36
2022-12-04T17:09:36.022Z,7.38
2022-12-04T17:12:39.777Z,7.96
2022-12-04T17:15:42.543Z,7.53
2022-12-04T17:18:45.351Z,5.98
2022-12-04T17:21:48.166Z,5.02
2022-12-04T17:24:55.978Z,4.66
2022-12-04T17:27:59.196Z,5.80
2022-12-04T17:31:04.654Z,6.28
2022-12-04T17:34:07.529Z,6.07
2022-12-04T17:37:10.410Z,6.06
2022-12-04T17:40:14.770Z,5.86
2022-12-04T17:43:21.889Z,5.76
2022-12-04T17:46:25.251Z,6.04
2022-12-04T17:49:28.240Z,6.52
2022-12-04T17:52:31.652Z,6.58
2022-12-04T17:55:35.173Z,6.58
2022-12-04T17:58:38.425Z,6.41
2022-12-04T18:01:41.237Z,6.20
2022-12-04T18:04:44.050Z,6.29
2022-12-04T18:07:46.943Z,6.69
2022-12-04T18:10:50.458Z,6.62
2022-12-04T18:13:59.444Z,6.57
2022-12-04T18:17:02.914Z,6.27
2022-12-04T18:20:07.049Z,6.18
2022-12-04T18:23:10.221Z,6.42
2022-12-04T18:26:15.353Z,6.30
2022-12-04T18:29:21.994Z,6.34
2022-12-04T18:32:24.788Z,6.29
2022-12-04T18:35:27.589Z,6.03
2022-12-04T18:38:32.105Z,6.01
2022-12-04T18:41:35.339Z,5.82
2022-12-04T18:44:38.152Z,5.27
2022-12-04T18:47:41.057Z,5.13
2022-12-04T18:50:43.821Z,5.41
2022-12-04T18:53:47.773Z,5.42
2022-12-04T18:56:51.422Z,5.42
2022-12-04T18:59:54.903Z,4.99
2022-12-04T19:02:58.049Z,4.62
2022-12-04T19:06:01.720Z,4.52
2022-12-04T19:09:11.331Z,4.52
2022-12-04T19:12:14.742Z,4.14
2022-12-04T19:15:17.584Z,3.92
2022-12-04T19:18:20.398Z,3.87
2022-12-04T19:21:24.132Z,4.26
2022-12-04T19:24:26.868Z,4.68
2022-12-04T19:27:29.688Z,4.97
2022-12-04T19:30:33.831Z,5.20
2022-12-04T19:33:37.361Z,5.36
2022-12-04T19:36:41.387Z,5.38
2022-12-04T19:39:44.370Z,5.65
2022-12-04T19:42:47.372Z,5.12
2022-12-04T19:45:50.436Z,4.31
2022-12-04T19:48:56.892Z,3.74
2022-12-04T19:51:59.709Z,3.28
2022-12-04T19:55:02.596Z,3.02
2022-12-04T19:58:05.400Z,2.98
2022-12-04T20:01:10.763Z,2.98
2022-12-04T20:04:13.627Z,3.39
2022-12-04T20:07:16.482Z,4.57
2022-12-04T20:10:19.436Z,4.94
2022-12-04T20:13:22.265Z,4.94
2022-12-04T20:16:26.690Z,4.65
2022-12-04T20:19:29.596Z,5.46
2022-12-04T20:22:32.502Z,6.74
2022-12-04T20:25:36.410Z,7.39
2022-12-04T20:28:41.230Z,6.85
2022-12-04T20:31:46.825Z,6.95
2022-12-04T20:34:49.655Z,7.32
2022-12-04T20:37:52.399Z,7.55
2022-12-04T20:40:55.220Z,6.98
2022-12-04T20:44:04.921Z,6.77
2022-12-04T20:47:07.817Z,6.70
2022-12-04T20:50:11.219Z,6.57
2022-12-04T20:53:14.085Z,6.39
2022-12-04T20:56:18.724Z,5.90
2022-12-04T20:59:23.357Z,5.73
2022-12-04T21:02:26.328Z,5.77
2022-12-04T21:05:29.112Z,5.48
2022-12-04T21:08:51.205Z,5.40
2022-12-04T21:11:55.685Z,5.36
2022-12-04T21:15:17.419Z,5.26
2022-12-04T21:18:20.242Z,5.68
2022-12-04T21:21:23.076Z,5.65
2022-12-04T21:24:30.497Z,5.70
2022-12-04T21:27:33.317Z,5.48
2022-12-04T21:30:36.126Z,5.17
2022-12-04T21:33:38.926Z,5.21
2022-12-04T21:36:42.783Z,6.35
2022-12-04T21:39:45.710Z,7.36
2022-12-04T21:42:48.467Z,7.43
2022-12-04T21:46:09.375Z,6.90
2022-12-04T21:49:13.916Z,7.12
2022-12-04T21:52:17.784Z,7.20
2022-12-04T21:55:20.593Z,6.80
2022-12-04T21:58:26.098Z,6.39
2022-12-04T22:01:29.080Z,6.50
2022-12-04T22:04:31.944Z,6.75
2022-12-04T22:07:34.785Z,7.55
2022-12-04T22:10:45.752Z,8.30
2022-12-04T22:13:48.658Z,8.43
2022-12-04T22:16:52.523Z,8.59
2022-12-04T22:19:55.715Z,6.95
2022-12-04T22:22:59.254Z,5.81
2022-12-04T22:26:10.732Z,5.85
2022-12-04T22:29:42.042Z,5.57
2022-12-04T22:32:36.881Z,5.29
2022-12-04T22:35:39.673Z,5.27
2022-12-04T22:39:05.964Z,5.20
2022-12-04T22:42:05.684Z,6.02
2022-12-04T22:45:09.758Z,6.23
2022-12-04T22:48:12.532Z,6.58
2022-12-04T22:51:18.778Z,6.82
2022-12-04T22:54:21.636Z,6.96
2022-12-04T22:57:25.057Z,7.03
2022-12-04T23:00:28.426Z,7.15
2022-12-04T23:03:31.223Z,7.30
2022-12-04T23:06:34.553Z,7.22
2022-12-04T23:09:37.523Z,7.29
2022-12-04T23:12:40.361Z,7.28
2022-12-04T23:15:43.158Z,7.38
2022-12-04T23:18:46.014Z,7.36
2022-12-04T23:21:56.409Z,7.71
2022-12-04T23:25:00.360Z,8.06
2022-12-04T23:28:03.202Z,7.87
2022-12-04T23:31:06.286Z,7.67
2022-12-04T23:34:09.100Z,8.12
2022-12-04T23:37:24.164Z,8.06
2022-12-04T23:40:26.794Z,8.57
2022-12-04T23:43:29.678Z,8.55
2022-12-04T23:46:33.243Z,6.75
2022-12-04T23:49:36.176Z,5.63
2022-12-04T23:52:39.056Z,6.16
2022-12-04T23:55:41.716Z,6.64
2022-12-04T23:58:45.772Z,7.21
